sensor_id;sensor_type;location;lat;lon;timestamp;pressure;altitude;pressure_sealevel;temperature;humidity
54262;BME280;40174;52.364;6.452;2022-07-29T00:00:11;101603.88;;;16.62;74.98
54262;BME280;40174;52.364;6.452;2022-07-29T00:02:37;101590.66;;;16.61;75.07
54262;BME280;40174;52.364;6.452;2022-07-29T00:05:04;101595.47;;;16.57;75.48
54262;BME280;40174;52.364;6.452;2022-07-29T00:07:31;101589.69;;;16.52;75.83
54262;BME280;40174;52.364;6.452;2022-07-29T00:09:58;101588.47;;;16.47;76.63
54262;BME280;40174;52.364;6.452;2022-07-29T00:12:25;101583.97;;;16.47;75.68
54262;BME280;40174;52.364;6.452;2022-07-29T00:14:54;101586.63;;;16.47;76.15
54262;BME280;40174;52.364;6.452;2022-07-29T00:17:21;101583.81;;;16.49;75.79
54262;BME280;40174;52.364;6.452;2022-07-29T00:19:47;101575.25;;;16.45;76.14
54262;BME280;40174;52.364;6.452;2022-07-29T00:22:14;101576.50;;;16.41;76.20
54262;BME280;40174;52.364;6.452;2022-07-29T00:24:40;101581.19;;;16.39;76.32
54262;BME280;40174;52.364;6.452;2022-07-29T00:27:07;101573.44;;;16.36;75.97
54262;BME280;40174;52.364;6.452;2022-07-29T00:29:34;101562.91;;;16.34;76.48
54262;BME280;40174;52.364;6.452;2022-07-29T00:32:02;101564.75;;;16.34;76.35
54262;BME280;40174;52.364;6.452;2022-07-29T00:34:29;101557.88;;;16.31;76.63
54262;BME280;40174;52.364;6.452;2022-07-29T00:37:13;101551.84;;;16.29;76.92
54262;BME280;40174;52.364;6.452;2022-07-29T00:39:39;101557.47;;;16.26;77.19
54262;BME280;40174;52.364;6.452;2022-07-29T00:42:06;101554.22;;;16.23;77.30
54262;BME280;40174;52.364;6.452;2022-07-29T00:44:36;101549.06;;;16.21;76.80
54262;BME280;40174;52.364;6.452;2022-07-29T00:47:04;101553.97;;;16.16;77.18
54262;BME280;40174;52.364;6.452;2022-07-29T00:49:31;101544.13;;;16.16;77.29
54262;BME280;40174;52.364;6.452;2022-07-29T00:51:57;101538.94;;;16.15;77.61
54262;BME280;40174;52.364;6.452;2022-07-29T00:54:26;101538.25;;;16.13;77.67
54262;BME280;40174;52.364;6.452;2022-07-29T00:56:55;101539.22;;;16.12;77.89
54262;BME280;40174;52.364;6.452;2022-07-29T00:59:22;101542.19;;;16.09;78.17
54262;BME280;40174;52.364;6.452;2022-07-29T01:01:49;101540.50;;;16.08;78.00
54262;BME280;40174;52.364;6.452;2022-07-29T01:04:17;101543.44;;;16.05;77.94
54262;BME280;40174;52.364;6.452;2022-07-29T01:06:43;101539.09;;;16.04;78.23
54262;BME280;40174;52.364;6.452;2022-07-29T01:09:10;101540.06;;;16.03;77.80
54262;BME280;40174;52.364;6.452;2022-07-29T01:11:38;101531.94;;;16.04;77.93
54262;BME280;40174;52.364;6.452;2022-07-29T01:14:07;101531.09;;;16.04;77.75
54262;BME280;40174;52.364;6.452;2022-07-29T01:16:42;101525.78;;;16.04;78.11
54262;BME280;40174;52.364;6.452;2022-07-29T01:19:23;101524.94;;;16.03;77.40
54262;BME280;40174;52.364;6.452;2022-07-29T01:21:59;101523.94;;;16.04;77.53
54262;BME280;40174;52.364;6.452;2022-07-29T01:24:51;101521.41;;;16.03;77.71
54262;BME280;40174;52.364;6.452;2022-07-29T01:27:37;101520.72;;;16.00;77.78
54262;BME280;40174;52.364;6.452;2022-07-29T01:30:07;101514.84;;;15.97;78.22
54262;BME280;40174;52.364;6.452;2022-07-29T01:32:36;101517.94;;;15.92;78.14
54262;BME280;40174;52.364;6.452;2022-07-29T01:35:05;101515.25;;;15.92;78.18
54262;BME280;40174;52.364;6.452;2022-07-29T01:37:39;101502.06;;;15.91;77.89
54262;BME280;40174;52.364;6.452;2022-07-29T01:40:11;101498.81;;;15.87;78.48
54262;BME280;40174;52.364;6.452;2022-07-29T01:42:43;101497.16;;;15.86;77.91
54262;BME280;40174;52.364;6.452;2022-07-29T01:45:14;101497.16;;;15.86;77.92
54262;BME280;40174;52.364;6.452;2022-07-29T01:47:44;101493.66;;;15.86;77.93
54262;BME280;40174;52.364;6.452;2022-07-29T01:50:16;101499.97;;;15.85;78.04
54262;BME280;40174;52.364;6.452;2022-07-29T01:52:47;101490.28;;;15.84;77.91
54262;BME280;40174;52.364;6.452;2022-07-29T01:55:17;101489.16;;;15.86;77.75
54262;BME280;40174;52.364;6.452;2022-07-29T01:57:47;101481.59;;;15.82;77.71
54262;BME280;40174;52.364;6.452;2022-07-29T02:00:16;101480.59;;;15.83;77.32
54262;BME280;40174;52.364;6.452;2022-07-29T02:02:45;101474.56;;;15.80;77.46
54262;BME280;40174;52.364;6.452;2022-07-29T02:05:15;101483.69;;;15.78;77.56
54262;BME280;40174;52.364;6.452;2022-07-29T02:07:44;101483.28;;;15.73;77.73
54262;BME280;40174;52.364;6.452;2022-07-29T02:10:13;101477.94;;;15.73;77.49
54262;BME280;40174;52.364;6.452;2022-07-29T02:12:42;101482.56;;;15.71;77.70
54262;BME280;40174;52.364;6.452;2022-07-29T02:15:10;101480.88;;;15.70;77.57
54262;BME280;40174;52.364;6.452;2022-07-29T02:17:42;101475.41;;;15.71;77.48
54262;BME280;40174;52.364;6.452;2022-07-29T02:20:10;101484.38;;;15.70;77.79
54262;BME280;40174;52.364;6.452;2022-07-29T02:22:39;101486.34;;;15.68;77.63
54262;BME280;40174;52.364;6.452;2022-07-29T02:25:08;101482.25;;;15.64;78.08
54262;BME280;40174;52.364;6.452;2022-07-29T02:27:35;101487.34;;;15.67;77.48
54262;BME280;40174;52.364;6.452;2022-07-29T02:30:04;101482.25;;;15.64;77.64
54262;BME280;40174;52.364;6.452;2022-07-29T02:32:34;101480.72;;;15.62;78.11
54262;BME280;40174;52.364;6.452;2022-07-29T02:35:03;101480.84;;;15.60;77.74
54262;BME280;40174;52.364;6.452;2022-07-29T02:37:31;101483.53;;;15.60;78.04
54262;BME280;40174;52.364;6.452;2022-07-29T02:39:58;101473.84;;;15.59;77.74
54262;BME280;40174;52.364;6.452;2022-07-29T02:42:27;101474.00;;;15.57;78.15
54262;BME280;40174;52.364;6.452;2022-07-29T02:44:55;101475.13;;;15.55;77.84
54262;BME280;40174;52.364;6.452;2022-07-29T02:47:23;101467.25;;;15.53;78.18
54262;BME280;40174;52.364;6.452;2022-07-29T02:49:53;101463.75;;;15.53;78.02
54262;BME280;40174;52.364;6.452;2022-07-29T02:52:26;101466.41;;;15.53;77.65
54262;BME280;40174;52.364;6.452;2022-07-29T02:54:56;101468.38;;;15.51;77.73
54262;BME280;40174;52.364;6.452;2022-07-29T02:57:30;101470.22;;;15.50;77.73
54262;BME280;40174;52.364;6.452;2022-07-29T03:00:04;101470.22;;;15.50;77.76
54262;BME280;40174;52.364;6.452;2022-07-29T03:02:34;101461.66;;;15.47;78.25
54262;BME280;40174;52.364;6.452;2022-07-29T03:05:04;101465.44;;;15.44;78.52
54262;BME280;40174;52.364;6.452;2022-07-29T03:07:33;101461.22;;;15.42;78.66
54262;BME280;40174;52.364;6.452;2022-07-29T03:10:01;101468.50;;;15.39;78.99
54262;BME280;40174;52.364;6.452;2022-07-29T03:12:28;101466.41;;;15.33;79.04
54262;BME280;40174;52.364;6.452;2022-07-29T03:14:56;101467.38;;;15.32;79.11
54262;BME280;40174;52.364;6.452;2022-07-29T03:17:23;101467.69;;;15.29;79.62
54262;BME280;40174;52.364;6.452;2022-07-29T03:19:49;101465.00;;;15.29;79.33
54262;BME280;40174;52.364;6.452;2022-07-29T03:22:16;101473.00;;;15.29;79.29
54262;BME280;40174;52.364;6.452;2022-07-29T03:24:44;101465.97;;;15.28;79.14
54262;BME280;40174;52.364;6.452;2022-07-29T03:27:11;101467.69;;;15.29;79.32
54262;BME280;40174;52.364;6.452;2022-07-29T03:29:38;101473.84;;;15.30;79.25
54262;BME280;40174;52.364;6.452;2022-07-29T03:32:05;101471.44;;;15.27;78.93
54262;BME280;40174;52.364;6.452;2022-07-29T03:34:32;101467.94;;;15.26;79.82
54262;BME280;40174;52.364;6.452;2022-07-29T03:36:59;101476.09;;;15.25;79.86
54262;BME280;40174;52.364;6.452;2022-07-29T03:39:28;101472.84;;;15.21;79.49
54262;BME280;40174;52.364;6.452;2022-07-29T03:41:58;101472.84;;;15.21;79.54
54262;BME280;40174;52.364;6.452;2022-07-29T03:44:27;101472.84;;;15.21;79.47
54262;BME280;40174;52.364;6.452;2022-07-29T03:46:55;101465.13;;;15.18;79.56
54262;BME280;40174;52.364;6.452;2022-07-29T03:49:24;101472.56;;;15.14;79.89
54262;BME280;40174;52.364;6.452;2022-07-29T03:51:52;101470.88;;;15.13;79.76
54262;BME280;40174;52.364;6.452;2022-07-29T03:54:18;101473.66;;;15.12;80.22
54262;BME280;40174;52.364;6.452;2022-07-29T03:56:46;101477.59;;;15.08;80.88
54262;BME280;40174;52.364;6.452;2022-07-29T03:59:17;101477.16;;;15.03;81.08
54262;BME280;40174;52.364;6.452;2022-07-29T04:01:45;101478.13;;;15.02;81.53
54262;BME280;40174;52.364;6.452;2022-07-29T04:04:12;101477.16;;;15.03;81.22
54262;BME280;40174;52.364;6.452;2022-07-29T04:06:40;101481.66;;;15.02;81.24
54262;BME280;40174;52.364;6.452;2022-07-29T04:09:06;101477.41;;;15.00;81.00
54262;BME280;40174;52.364;6.452;2022-07-29T04:11:34;101475.31;;;15.03;81.01
54262;BME280;40174;52.364;6.452;2022-07-29T04:14:00;101475.31;;;15.03;80.92
54262;BME280;40174;52.364;6.452;2022-07-29T04:16:29;101478.81;;;15.04;81.18
54262;BME280;40174;52.364;6.452;2022-07-29T04:18:55;101480.78;;;15.02;81.30
54262;BME280;40174;52.364;6.452;2022-07-29T04:21:22;101482.59;;;15.01;81.19
54262;BME280;40174;52.364;6.452;2022-07-29T04:23:48;101482.72;;;15.00;81.32
54262;BME280;40174;52.364;6.452;2022-07-29T04:26:15;101488.94;;;15.00;81.09
54262;BME280;40174;52.364;6.452;2022-07-29T04:28:42;101488.06;;;15.00;81.39
54262;BME280;40174;52.364;6.452;2022-07-29T04:31:09;101492.53;;;14.99;81.20
54262;BME280;40174;52.364;6.452;2022-07-29T04:33:36;101496.75;;;15.02;81.24
54262;BME280;40174;52.364;6.452;2022-07-29T04:36:04;101496.91;;;15.00;80.98
54262;BME280;40174;52.364;6.452;2022-07-29T04:38:30;101495.91;;;15.01;80.74
54262;BME280;40174;52.364;6.452;2022-07-29T04:40:57;101498.44;;;15.03;81.11
54262;BME280;40174;52.364;6.452;2022-07-29T04:43:23;101493.13;;;15.03;81.18
54262;BME280;40174;52.364;6.452;2022-07-29T04:45:50;101494.66;;;15.05;81.30
54262;BME280;40174;52.364;6.452;2022-07-29T04:48:16;101496.50;;;15.05;80.84
54262;BME280;40174;52.364;6.452;2022-07-29T04:50:44;101486.56;;;15.07;81.04
54262;BME280;40174;52.364;6.452;2022-07-29T04:53:11;101478.56;;;15.07;81.02
54262;BME280;40174;52.364;6.452;2022-07-29T04:55:37;101481.06;;;15.08;80.72
54262;BME280;40174;52.364;6.452;2022-07-29T04:58:04;101479.25;;;15.09;80.81
54262;BME280;40174;52.364;6.452;2022-07-29T05:00:30;101483.31;;;15.13;80.51
54262;BME280;40174;52.364;6.452;2022-07-29T05:02:57;101481.53;;;15.13;80.60
54262;BME280;40174;52.364;6.452;2022-07-29T05:05:23;101483.31;;;15.13;80.27
54262;BME280;40174;52.364;6.452;2022-07-29T05:07:52;101478.88;;;15.13;80.54
54262;BME280;40174;52.364;6.452;2022-07-29T05:10:18;101470.72;;;15.15;80.94
54262;BME280;40174;52.364;6.452;2022-07-29T05:12:45;101477.75;;;15.16;81.15
54262;BME280;40174;52.364;6.452;2022-07-29T05:15:11;101472.25;;;15.17;80.91
54262;BME280;40174;52.364;6.452;2022-07-29T05:17:38;101476.63;;;15.18;81.16
54262;BME280;40174;52.364;6.452;2022-07-29T05:20:05;101472.00;;;15.21;80.76
54262;BME280;40174;52.364;6.452;2022-07-29T05:22:32;101471.72;;;15.24;81.12
54262;BME280;40174;52.364;6.452;2022-07-29T05:25:00;101477.88;;;15.24;80.93
54262;BME280;40174;52.364;6.452;2022-07-29T05:27:27;101473.97;;;15.28;80.60
54262;BME280;40174;52.364;6.452;2022-07-29T05:29:54;101475.66;;;15.29;80.85
54262;BME280;40174;52.364;6.452;2022-07-29T05:32:21;101480.72;;;15.32;79.79
54262;BME280;40174;52.364;6.452;2022-07-29T05:34:48;101481.41;;;15.34;80.00
54262;BME280;40174;52.364;6.452;2022-07-29T05:37:14;101482.25;;;15.35;80.58
54262;BME280;40174;52.364;6.452;2022-07-29T05:39:41;101489.53;;;15.33;81.13
54262;BME280;40174;52.364;6.452;2022-07-29T05:42:09;101491.06;;;15.35;80.42
54262;BME280;40174;52.364;6.452;2022-07-29T05:44:36;101494.59;;;15.36;80.59
54262;BME280;40174;52.364;6.452;2022-07-29T05:47:03;101497.97;;;15.38;79.99
54262;BME280;40174;52.364;6.452;2022-07-29T05:49:29;101481.13;;;15.37;79.78
54262;BME280;40174;52.364;6.452;2022-07-29T05:51:56;101480.16;;;15.38;79.79
54262;BME280;40174;52.364;6.452;2022-07-29T05:54:23;101483.38;;;15.42;79.72
54262;BME280;40174;52.364;6.452;2022-07-29T05:56:49;101483.38;;;15.42;80.41
54262;BME280;40174;52.364;6.452;2022-07-29T05:59:17;101484.50;;;15.39;80.13
54262;BME280;40174;52.364;6.452;2022-07-29T06:01:44;101497.09;;;15.37;80.63
54262;BME280;40174;52.364;6.452;2022-07-29T06:04:10;101511.53;;;15.35;80.90
54262;BME280;40174;52.364;6.452;2022-07-29T06:06:37;101511.84;;;15.32;81.61
54262;BME280;40174;52.364;6.452;2022-07-29T06:09:03;101527.81;;;15.32;84.48
54262;BME280;40174;52.364;6.452;2022-07-29T06:11:30;101523.19;;;15.34;85.59
54262;BME280;40174;52.364;6.452;2022-07-29T06:13:56;101520.53;;;15.34;88.35
54262;BME280;40174;52.364;6.452;2022-07-29T06:16:24;101507.47;;;15.31;90.77
54262;BME280;40174;52.364;6.452;2022-07-29T06:18:51;101521.19;;;15.26;94.09
54262;BME280;40174;52.364;6.452;2022-07-29T06:21:18;101527.09;;;15.20;96.12
54262;BME280;40174;52.364;6.452;2022-07-29T06:23:45;101529.72;;;15.10;96.49
54262;BME280;40174;52.364;6.452;2022-07-29T06:26:11;101535.16;;;15.09;96.45
54262;BME280;40174;52.364;6.452;2022-07-29T06:28:38;101529.69;;;15.01;98.92
54262;BME280;40174;52.364;6.452;2022-07-29T06:31:05;101529.56;;;15.02;98.78
54262;BME280;40174;52.364;6.452;2022-07-29T06:33:33;101531.63;;;14.99;99.06
54262;BME280;40174;52.364;6.452;2022-07-29T06:35:59;101547.59;;;14.99;98.99
54262;BME280;40174;52.364;6.452;2022-07-29T06:38:26;101536.25;;;14.96;98.75
54262;BME280;40174;52.364;6.452;2022-07-29T06:40:53;101512.59;;;14.93;100.00
54262;BME280;40174;52.364;6.452;2022-07-29T06:43:31;101506.25;;;14.94;100.00
54262;BME280;40174;52.364;6.452;2022-07-29T06:46:00;101504.59;;;14.93;100.00
54262;BME280;40174;52.364;6.452;2022-07-29T06:48:27;101510.16;;;14.90;100.00
54262;BME280;40174;52.364;6.452;2022-07-29T06:50:56;101507.50;;;14.90;100.00
54262;BME280;40174;52.364;6.452;2022-07-29T06:53:22;101497.00;;;14.89;100.00
54262;BME280;40174;52.364;6.452;2022-07-29T06:55:49;101500.75;;;14.86;100.00
54262;BME280;40174;52.364;6.452;2022-07-29T06:58:16;101511.69;;;14.83;100.00
54262;BME280;40174;52.364;6.452;2022-07-29T07:00:54;101494.06;;;14.82;100.00
54262;BME280;40174;52.364;6.452;2022-07-29T07:03:21;101501.16;;;14.82;100.00
54262;BME280;40174;52.364;6.452;2022-07-29T07:05:48;101501.88;;;14.84;100.00
54262;BME280;40174;52.364;6.452;2022-07-29T07:08:16;101501.16;;;14.82;100.00
54262;BME280;40174;52.364;6.452;2022-07-29T07:10:44;101498.38;;;14.83;100.00
54262;BME280;40174;52.364;6.452;2022-07-29T07:13:11;101512.53;;;14.84;100.00
54262;BME280;40174;52.364;6.452;2022-07-29T07:15:38;101519.53;;;14.85;100.00
54262;BME280;40174;52.364;6.452;2022-07-29T07:18:05;101521.22;;;14.86;100.00
54262;BME280;40174;52.364;6.452;2022-07-29T07:20:33;101522.63;;;14.90;100.00
54262;BME280;40174;52.364;6.452;2022-07-29T07:22:59;101514.38;;;14.93;100.00
54262;BME280;40174;52.364;6.452;2022-07-29T07:25:28;101517.63;;;14.96;100.00
54262;BME280;40174;52.364;6.452;2022-07-29T07:27:54;101503.91;;;15.01;100.00
54262;BME280;40174;52.364;6.452;2022-07-29T07:30:21;101500.00;;;15.05;100.00
54262;BME280;40174;52.364;6.452;2022-07-29T07:32:48;101491.88;;;15.07;100.00
54262;BME280;40174;52.364;6.452;2022-07-29T07:35:14;101495.69;;;15.14;100.00
54262;BME280;40174;52.364;6.452;2022-07-29T07:37:41;101500.47;;;15.20;100.00
54262;BME280;40174;52.364;6.452;2022-07-29T07:40:10;101500.47;;;15.20;100.00
54262;BME280;40174;52.364;6.452;2022-07-29T07:42:39;101506.06;;;15.27;100.00
54262;BME280;40174;52.364;6.452;2022-07-29T07:45:07;101496.81;;;15.31;100.00
54262;BME280;40174;52.364;6.452;2022-07-29T07:47:34;101489.81;;;15.39;100.00
54262;BME280;40174;52.364;6.452;2022-07-29T07:50:02;101490.09;;;15.46;100.00
54262;BME280;40174;52.364;6.452;2022-07-29T07:52:29;101481.84;;;15.49;100.00
54262;BME280;40174;52.364;6.452;2022-07-29T07:54:56;101482.41;;;15.53;100.00
54262;BME280;40174;52.364;6.452;2022-07-29T07:57:22;101487.31;;;15.57;100.00
54262;BME280;40174;52.364;6.452;2022-07-29T07:59:50;101487.47;;;15.56;100.00
54262;BME280;40174;52.364;6.452;2022-07-29T08:02:17;101484.66;;;15.57;100.00
54262;BME280;40174;52.364;6.452;2022-07-29T08:04:43;101482.81;;;15.58;100.00
54262;BME280;40174;52.364;6.452;2022-07-29T08:07:10;101481.72;;;15.61;100.00
54262;BME280;40174;52.364;6.452;2022-07-29T08:09:36;101484.09;;;15.64;100.00
54262;BME280;40174;52.364;6.452;2022-07-29T08:12:03;101487.34;;;15.67;100.00
54262;BME280;40174;52.364;6.452;2022-07-29T08:14:31;101491.97;;;15.65;100.00
54262;BME280;40174;52.364;6.452;2022-07-29T08:16:59;101496.16;;;15.68;100.00
54262;BME280;40174;52.364;6.452;2022-07-29T08:19:26;101500.97;;;15.74;100.00
54262;BME280;40174;52.364;6.452;2022-07-29T08:21:53;101512.03;;;15.79;100.00
54262;BME280;40174;52.364;6.452;2022-07-29T08:24:20;101511.47;;;15.75;100.00
54262;BME280;40174;52.364;6.452;2022-07-29T08:27:04;101517.91;;;15.83;100.00
54262;BME280;40174;52.364;6.452;2022-07-29T08:29:30;101515.81;;;15.86;100.00
54262;BME280;40174;52.364;6.452;2022-07-29T08:31:58;101523.25;;;15.92;99.13
54262;BME280;40174;52.364;6.452;2022-07-29T08:34:25;101511.16;;;15.98;98.84
54262;BME280;40174;52.364;6.452;2022-07-29T08:36:51;101509.34;;;15.98;98.76
54262;BME280;40174;52.364;6.452;2022-07-29T08:39:18;101506.00;;;15.96;98.15
54262;BME280;40174;52.364;6.452;2022-07-29T08:41:45;101515.53;;;15.99;99.30
54262;BME280;40174;52.364;6.452;2022-07-29T08:44:12;101510.34;;;15.97;99.55
54262;BME280;40174;52.364;6.452;2022-07-29T08:46:39;101508.25;;;16.01;98.81
54262;BME280;40174;52.364;6.452;2022-07-29T08:49:07;101505.16;;;16.06;99.48
54262;BME280;40174;52.364;6.452;2022-07-29T08:51:34;101507.66;;;16.07;99.39
54262;BME280;40174;52.364;6.452;2022-07-29T08:54:02;101510.31;;;16.07;98.63
54262;BME280;40174;52.364;6.452;2022-07-29T08:56:29;101510.59;;;16.14;99.10
54262;BME280;40174;52.364;6.452;2022-07-29T08:58:58;101510.84;;;16.20;98.40
54262;BME280;40174;52.364;6.452;2022-07-29T09:01:27;101516.19;;;16.30;98.26
54262;BME280;40174;52.364;6.452;2022-07-29T09:03:55;101518.00;;;16.39;97.07
54262;BME280;40174;52.364;6.452;2022-07-29T09:06:24;101515.59;;;16.46;96.30
54262;BME280;40174;52.364;6.452;2022-07-29T09:08:53;101508.25;;;16.58;95.47
54262;BME280;40174;52.364;6.452;2022-07-29T09:11:21;101504.81;;;16.66;94.74
54262;BME280;40174;52.364;6.452;2022-07-29T09:13:47;101499.47;;;16.75;94.59
54262;BME280;40174;52.364;6.452;2022-07-29T09:16:14;101509.44;;;16.83;94.65
54262;BME280;40174;52.364;6.452;2022-07-29T09:18:42;101508.97;;;16.88;94.53
54262;BME280;40174;52.364;6.452;2022-07-29T09:21:12;101505.59;;;16.95;94.20
54262;BME280;40174;52.364;6.452;2022-07-29T09:24:05;101514.13;;;16.99;94.42
54262;BME280;40174;52.364;6.452;2022-07-29T09:26:34;101508.50;;;17.02;93.72
54262;BME280;40174;52.364;6.452;2022-07-29T09:29:08;101516.91;;;17.07;94.06
54262;BME280;40174;52.364;6.452;2022-07-29T09:31:38;101521.84;;;17.02;93.71
54262;BME280;40174;52.364;6.452;2022-07-29T09:34:06;101529.44;;;17.07;95.43
54262;BME280;40174;52.364;6.452;2022-07-29T09:36:39;101532.63;;;17.10;94.26
54262;BME280;40174;52.364;6.452;2022-07-29T09:39:07;101536.38;;;17.17;94.26
54262;BME280;40174;52.364;6.452;2022-07-29T09:41:48;101554.91;;;17.29;93.63
54262;BME280;40174;52.364;6.452;2022-07-29T09:44:15;101573.28;;;17.32;92.98
54262;BME280;40174;52.364;6.452;2022-07-29T09:46:53;101586.09;;;17.28;91.72
54262;BME280;40174;52.364;6.452;2022-07-29T09:49:20;101585.38;;;17.26;91.99
54262;BME280;40174;52.364;6.452;2022-07-29T09:51:46;101574.81;;;17.34;91.60
54262;BME280;40174;52.364;6.452;2022-07-29T09:54:25;101580.59;;;17.30;91.13
54262;BME280;40174;52.364;6.452;2022-07-29T09:56:52;101567.09;;;17.31;91.81
54262;BME280;40174;52.364;6.452;2022-07-29T09:59:19;101571.44;;;17.32;92.80
54262;BME280;40174;52.364;6.452;2022-07-29T10:01:49;101565.78;;;17.35;91.38
54262;BME280;40174;52.364;6.452;2022-07-29T10:04:16;101573.97;;;17.34;89.90
54262;BME280;40174;52.364;6.452;2022-07-29T10:06:56;101577.09;;;17.29;90.77
54262;BME280;40174;52.364;6.452;2022-07-29T10:09:25;101578.31;;;17.35;91.23
54262;BME280;40174;52.364;6.452;2022-07-29T10:12:05;101572.69;;;17.38;91.17
54262;BME280;40174;52.364;6.452;2022-07-29T10:14:33;101570.53;;;17.41;91.33
54262;BME280;40174;52.364;6.452;2022-07-29T10:17:00;101576.59;;;17.43;91.55
54262;BME280;40174;52.364;6.452;2022-07-29T10:19:28;101572.06;;;17.44;91.00
54262;BME280;40174;52.364;6.452;2022-07-29T10:21:56;101565.19;;;17.41;90.67
54262;BME280;40174;52.364;6.452;2022-07-29T10:24:25;101559.25;;;17.48;90.52
54262;BME280;40174;52.364;6.452;2022-07-29T10:26:52;101562.94;;;17.47;92.51
54262;BME280;40174;52.364;6.452;2022-07-29T10:29:19;101564.28;;;17.51;92.09
54262;BME280;40174;52.364;6.452;2022-07-29T10:31:53;101562.63;;;17.50;90.57
54262;BME280;40174;52.364;6.452;2022-07-29T10:34:36;101565.69;;;17.55;90.20
54262;BME280;40174;52.364;6.452;2022-07-29T10:37:16;101557.66;;;17.55;91.78
54262;BME280;40174;52.364;6.452;2022-07-29T10:39:54;101560.06;;;17.58;91.33
54262;BME280;40174;52.364;6.452;2022-07-29T10:42:24;101549.03;;;17.61;91.84
54262;BME280;40174;52.364;6.452;2022-07-29T10:44:52;101549.59;;;17.64;91.26
54262;BME280;40174;52.364;6.452;2022-07-29T10:47:21;101547.31;;;17.70;90.16
54262;BME280;40174;52.364;6.452;2022-07-29T10:49:58;101547.94;;;17.81;89.24
54262;BME280;40174;52.364;6.452;2022-07-29T10:52:25;101541.81;;;17.89;88.78
54262;BME280;40174;52.364;6.452;2022-07-29T10:55:37;101538.91;;;18.00;88.58
54262;BME280;40174;52.364;6.452;2022-07-29T10:58:14;101539.66;;;18.11;87.20
54262;BME280;40174;52.364;6.452;2022-07-29T11:00:41;101542.22;;;18.20;86.31
54262;BME280;40174;52.364;6.452;2022-07-29T11:03:07;101538.94;;;18.26;84.99
54262;BME280;40174;52.364;6.452;2022-07-29T11:05:54;101536.31;;;18.35;83.48
54262;BME280;40174;52.364;6.452;2022-07-29T11:08:23;101537.38;;;18.42;83.46
54262;BME280;40174;52.364;6.452;2022-07-29T11:10:53;101531.06;;;18.51;83.72
54262;BME280;40174;52.364;6.452;2022-07-29T11:13:47;101529.63;;;18.65;84.66
54262;BME280;40174;52.364;6.452;2022-07-29T11:16:15;101529.25;;;18.78;84.68
54262;BME280;40174;52.364;6.452;2022-07-29T11:19:18;101527.94;;;18.90;83.04
54262;BME280;40174;52.364;6.452;2022-07-29T11:21:46;101515.63;;;19.05;81.54
54262;BME280;40174;52.364;6.452;2022-07-29T11:24:17;101508.13;;;19.25;80.83
54262;BME280;40174;52.364;6.452;2022-07-29T11:26:45;101509.84;;;19.35;79.09
54262;BME280;40174;52.364;6.452;2022-07-29T11:29:18;101508.69;;;19.45;78.81
54262;BME280;40174;52.364;6.452;2022-07-29T11:31:47;101510.56;;;19.61;79.06
54262;BME280;40174;52.364;6.452;2022-07-29T11:34:24;101509.78;;;19.69;78.22
54262;BME280;40174;52.364;6.452;2022-07-29T11:37:25;101509.59;;;19.95;78.03
54262;BME280;40174;52.364;6.452;2022-07-29T11:40:15;101514.25;;;20.26;76.35
54262;BME280;40174;52.364;6.452;2022-07-29T11:42:50;101510.84;;;20.65;75.00
54262;BME280;40174;52.364;6.452;2022-07-29T11:45:25;101526.34;;;20.94;73.73
54262;BME280;40174;52.364;6.452;2022-07-29T11:47:58;101522.97;;;21.00;71.38
54262;BME280;40174;52.364;6.452;2022-07-29T11:50:33;101530.56;;;21.28;70.37
54262;BME280;40174;52.364;6.452;2022-07-29T11:53:02;101530.56;;;21.82;73.73
54262;BME280;40174;52.364;6.452;2022-07-29T11:55:29;101528.88;;;22.19;69.79
54262;BME280;40174;52.364;6.452;2022-07-29T11:58:02;101528.22;;;22.55;66.02
54262;BME280;40174;52.364;6.452;2022-07-29T12:00:31;101525.06;;;22.81;67.05
54262;BME280;40174;52.364;6.452;2022-07-29T12:02:59;101528.19;;;23.14;64.63
54262;BME280;40174;52.364;6.452;2022-07-29T12:05:31;101525.31;;;23.52;63.75
54262;BME280;40174;52.364;6.452;2022-07-29T12:08:05;101526.31;;;23.94;61.14
54262;BME280;40174;52.364;6.452;2022-07-29T12:10:32;101525.63;;;24.35;62.47
54262;BME280;40174;52.364;6.452;2022-07-29T12:12:59;101524.63;;;24.71;61.26
54262;BME280;40174;52.364;6.452;2022-07-29T12:15:27;101535.81;;;25.09;61.37
54262;BME280;40174;52.364;6.452;2022-07-29T12:17:53;101537.59;;;25.44;58.75
54262;BME280;40174;52.364;6.452;2022-07-29T12:20:25;101532.41;;;25.49;55.43
54262;BME280;40174;52.364;6.452;2022-07-29T12:22:51;101528.03;;;25.48;56.37
54262;BME280;40174;52.364;6.452;2022-07-29T12:25:20;101522.47;;;25.69;55.40
54262;BME280;40174;52.364;6.452;2022-07-29T12:27:57;101513.94;;;25.86;55.34
54262;BME280;40174;52.364;6.452;2022-07-29T12:30:35;101520.63;;;26.03;56.48
54262;BME280;40174;52.364;6.452;2022-07-29T12:33:11;101521.81;;;26.41;53.33
54262;BME280;40174;52.364;6.452;2022-07-29T12:35:40;101511.63;;;26.36;50.77
54262;BME280;40174;52.364;6.452;2022-07-29T12:38:09;101514.94;;;26.45;50.85
54262;BME280;40174;52.364;6.452;2022-07-29T12:40:38;101515.38;;;26.55;51.65
54262;BME280;40174;52.364;6.452;2022-07-29T12:43:07;101514.13;;;26.24;50.70
54262;BME280;40174;52.364;6.452;2022-07-29T12:45:36;101527.06;;;25.96;51.35
54262;BME280;40174;52.364;6.452;2022-07-29T12:48:03;101511.63;;;25.69;51.56
54262;BME280;40174;52.364;6.452;2022-07-29T12:50:30;101518.06;;;25.68;52.76
54262;BME280;40174;52.364;6.452;2022-07-29T12:53:10;101517.22;;;25.55;52.91
54262;BME280;40174;52.364;6.452;2022-07-29T12:55:42;101518.44;;;25.32;52.39
54262;BME280;40174;52.364;6.452;2022-07-29T12:58:08;101513.00;;;25.19;54.10